createdAt,value
2018-07-05T00:01:58.785Z,63.44
2018-07-05T00:04:38.258Z,63.09
2018-07-05T00:07:18.571Z,62.64
2018-07-05T00:09:58.120Z,62.20
2018-07-05T00:12:38.730Z,63.64
2018-07-05T00:15:18.561Z,64.69
2018-07-05T00:17:58.283Z,63.91
2018-07-05T00:20:37.891Z,64.56
2018-07-05T00:23:17.278Z,64.03
2018-07-05T00:25:56.731Z,63.90
2018-07-05T00:28:36.259Z,66.37
2018-07-05T00:31:15.562Z,65.84
2018-07-05T00:33:55.151Z,65.50
2018-07-05T00:36:34.611Z,67.83
2018-07-05T00:39:14.476Z,66.57
2018-07-05T00:41:54.791Z,67.91
2018-07-05T00:44:34.346Z,67.75
2018-07-05T00:47:14.078Z,68.31
2018-07-05T00:49:53.809Z,67.79
2018-07-05T00:52:33.282Z,67.14
2018-07-05T00:55:12.868Z,67.26
2018-07-05T00:57:52.751Z,65.43
2018-07-05T01:00:32.231Z,66.04
2018-07-05T01:03:11.679Z,64.30
2018-07-05T01:05:51.101Z,66.41
2018-07-05T01:08:30.378Z,66.25
2018-07-05T01:11:09.951Z,65.06
2018-07-05T01:13:49.237Z,68.11
2018-07-05T01:16:28.599Z,66.94
2018-07-05T01:19:08.204Z,64.41
2018-07-05T01:21:47.688Z,64.71
2018-07-05T01:24:27.226Z,63.65
2018-07-05T01:27:06.624Z,65.06
2018-07-05T01:29:46.023Z,67.18
2018-07-05T01:32:25.526Z,66.06
2018-07-05T01:35:05.043Z,66.86
2018-07-05T01:37:44.553Z,66.07
2018-07-05T01:40:24.010Z,67.00
2018-07-05T01:43:03.396Z,67.36
2018-07-05T01:45:43.202Z,68.78
2018-07-05T01:48:22.698Z,66.37
2018-07-05T01:51:02.911Z,67.77
2018-07-05T01:53:42.314Z,65.60
2018-07-05T01:56:21.568Z,67.18
2018-07-05T01:59:01.063Z,66.57
2018-07-05T02:01:41.131Z,67.37
2018-07-05T02:04:20.625Z,68.28
2018-07-05T02:06:59.994Z,67.94
2018-07-05T02:09:39.427Z,68.79
2018-07-05T02:12:18.993Z,67.82
2018-07-05T02:14:58.450Z,67.58
2018-07-05T02:17:37.786Z,68.73
2018-07-05T02:20:17.311Z,67.97
2018-07-05T02:22:56.899Z,67.76
2018-07-05T02:25:36.415Z,66.28
2018-07-05T02:28:15.962Z,68.24
2018-07-05T02:30:55.622Z,67.19
2018-07-05T02:33:35.124Z,65.18
2018-07-05T02:36:14.555Z,64.67
2018-07-05T02:38:59.603Z,65.56
2018-07-05T02:41:38.911Z,68.45
2018-07-05T02:44:19.362Z,67.74
2018-07-05T02:46:58.898Z,66.89
2018-07-05T02:49:38.375Z,68.33
2018-07-05T02:52:17.872Z,66.75
2018-07-05T02:54:57.412Z,67.09
2018-07-05T02:57:37.038Z,65.95
2018-07-05T03:00:16.546Z,69.08
2018-07-05T03:02:56.131Z,70.81
2018-07-05T03:05:35.732Z,68.94
2018-07-05T03:08:15.235Z,67.77
2018-07-05T03:10:54.795Z,69.07
2018-07-05T03:13:34.261Z,68.23
2018-07-05T03:16:13.729Z,68.29
2018-07-05T03:18:53.082Z,67.93
2018-07-05T03:21:32.575Z,67.84
2018-07-05T03:24:12.082Z,68.34
2018-07-05T03:26:51.829Z,69.06
2018-07-05T03:29:31.390Z,67.87
2018-07-05T03:32:10.875Z,67.80
2018-07-05T03:34:50.332Z,68.78
2018-07-05T03:37:29.830Z,69.64
2018-07-05T03:40:09.283Z,70.42
2018-07-05T03:42:49.696Z,69.85
2018-07-05T03:45:29.238Z,69.62
2018-07-05T03:48:08.658Z,69.41
2018-07-05T03:50:48.141Z,68.14
2018-07-05T03:53:27.581Z,69.58
2018-07-05T03:56:07.019Z,70.58
2018-07-05T03:58:46.502Z,70.30
2018-07-05T04:01:26.035Z,69.31
2018-07-05T04:04:05.461Z,70.09
2018-07-05T04:06:44.999Z,72.27
2018-07-05T04:09:24.465Z,73.95
2018-07-05T04:12:03.895Z,72.70
2018-07-05T04:14:43.393Z,73.58
2018-07-05T04:17:22.961Z,75.20
2018-07-05T04:20:02.582Z,76.09
2018-07-05T04:22:42.187Z,75.18
2018-07-05T04:25:21.628Z,75.51
2018-07-05T04:28:02.074Z,74.90
2018-07-05T04:30:41.486Z,74.32
2018-07-05T04:33:20.952Z,73.73
2018-07-05T04:36:00.426Z,73.40
2018-07-05T04:38:40.030Z,72.32
2018-07-05T04:41:19.830Z,70.83
2018-07-05T04:43:59.605Z,70.99
2018-07-05T04:46:39.150Z,71.81
2018-07-05T04:49:18.591Z,71.91
2018-07-05T04:51:58.110Z,70.46
2018-07-05T04:54:37.608Z,70.72
2018-07-05T04:57:17.124Z,71.37
2018-07-05T04:59:56.536Z,70.40
2018-07-05T05:02:36.178Z,69.84
2018-07-05T05:05:15.743Z,69.50
2018-07-05T05:07:56.211Z,68.80
2018-07-05T05:10:36.363Z,70.46
2018-07-05T05:13:16.212Z,70.66
2018-07-05T05:15:56.174Z,70.49
2018-07-05T05:18:35.710Z,70.37
2018-07-05T05:21:15.356Z,70.05
2018-07-05T05:23:54.865Z,69.75
2018-07-05T05:26:34.548Z,67.41
2018-07-05T05:29:13.974Z,68.70
2018-07-05T05:31:53.496Z,67.60
2018-07-05T05:34:33.046Z,68.83
2018-07-05T05:37:12.453Z,68.82
2018-07-05T05:39:51.751Z,67.45
2018-07-05T05:42:31.328Z,66.53
2018-07-05T05:45:10.886Z,67.41
2018-07-05T05:47:50.260Z,68.04
2018-07-05T05:50:29.584Z,67.25
2018-07-05T05:53:09.018Z,67.20
2018-07-05T05:55:48.197Z,67.87
2018-07-05T05:58:28.085Z,67.16
2018-07-05T06:01:07.937Z,67.23
2018-07-05T06:03:47.504Z,67.84
2018-07-05T06:06:27.104Z,68.21
2018-07-05T06:09:06.625Z,66.59
2018-07-05T06:11:45.946Z,67.40
2018-07-05T06:14:25.451Z,66.74
2018-07-05T06:17:05.464Z,66.18
2018-07-05T06:19:45.000Z,67.99
2018-07-05T06:22:24.713Z,67.00
2018-07-05T06:25:04.328Z,66.70
2018-07-05T06:27:43.694Z,66.03
2018-07-05T06:30:23.123Z,65.41
2018-07-05T06:33:02.548Z,65.93
2018-07-05T06:35:42.367Z,65.19
2018-07-05T06:38:21.726Z,64.91
2018-07-05T06:43:56.108Z,64.25
2018-07-05T06:46:35.823Z,64.83
2018-07-05T06:49:15.375Z,64.89
2018-07-05T06:51:55.005Z,65.49
2018-07-05T06:54:34.570Z,63.86
2018-07-05T06:57:14.138Z,63.43
2018-07-05T06:59:53.533Z,62.63
2018-07-05T07:02:32.987Z,62.29
2018-07-05T07:05:12.384Z,62.96
2018-07-05T07:07:51.820Z,62.23
2018-07-05T07:10:31.367Z,61.88
2018-07-05T07:13:10.844Z,62.44
2018-07-05T07:15:50.522Z,61.64
2018-07-05T07:18:29.955Z,61.16
2018-07-05T07:21:09.529Z,61.26
2018-07-05T07:23:48.984Z,60.79
2018-07-05T07:26:28.522Z,61.10
2018-07-05T07:29:08.289Z,61.77
2018-07-05T07:31:47.945Z,62.05
2018-07-05T07:34:27.344Z,61.66
2018-07-05T07:37:06.938Z,62.11
2018-07-05T07:39:46.365Z,62.53
2018-07-05T07:42:13.436Z,62.25
2018-07-05T07:44:40.481Z,61.61
2018-07-05T07:47:08.462Z,61.56
2018-07-05T07:49:35.515Z,62.53
2018-07-05T07:52:02.639Z,64.66
2018-07-05T07:54:29.698Z,62.48
2018-07-05T07:56:56.753Z,63.27
2018-07-05T07:59:23.796Z,63.87
2018-07-05T08:01:50.871Z,62.87
2018-07-05T08:04:17.914Z,61.53
2018-07-05T08:06:44.982Z,61.27
2018-07-05T08:09:12.011Z,61.38
2018-07-05T08:11:39.075Z,59.82
2018-07-05T08:14:06.606Z,61.07
2018-07-05T08:16:33.659Z,60.12
2018-07-05T08:19:00.749Z,59.94
2018-07-05T08:21:27.819Z,60.17
2018-07-05T08:23:54.858Z,59.46
2018-07-05T08:26:21.906Z,58.64
2018-07-05T08:28:48.961Z,56.97
2018-07-05T08:31:16.042Z,57.42
2018-07-05T08:33:43.074Z,57.93
2018-07-05T08:36:10.131Z,57.20
2018-07-05T08:38:37.227Z,57.15
2018-07-05T08:41:04.275Z,57.42
2018-07-05T08:43:31.354Z,57.11
2018-07-05T08:45:58.406Z,56.86
2018-07-05T08:48:25.540Z,55.70
2018-07-05T08:50:52.612Z,55.17
2018-07-05T08:53:19.739Z,55.30
2018-07-05T08:55:47.003Z,55.09
2018-07-05T08:58:14.095Z,55.41
2018-07-05T09:00:41.105Z,56.65
2018-07-05T09:03:08.884Z,56.74
2018-07-05T09:05:35.935Z,54.59
2018-07-05T09:08:03.037Z,54.43
2018-07-05T09:10:30.113Z,54.10
2018-07-05T09:12:57.178Z,53.60
2018-07-05T09:15:24.271Z,53.02
2018-07-05T09:17:51.561Z,53.03
2018-07-05T09:20:18.480Z,52.08
2018-07-05T09:22:45.534Z,52.04
2018-07-05T09:25:12.606Z,52.23
2018-07-05T09:27:39.663Z,54.13
2018-07-05T09:30:06.752Z,52.21
2018-07-05T09:32:33.786Z,51.70
2018-07-05T09:35:00.850Z,52.96
2018-07-05T09:37:27.902Z,52.16
2018-07-05T09:42:33.747Z,51.78
2018-07-05T09:45:00.790Z,52.73
2018-07-05T09:47:27.863Z,52.40
2018-07-05T09:49:54.902Z,51.64
2018-07-05T09:52:21.952Z,53.52
2018-07-05T09:54:49.043Z,51.30
2018-07-05T09:57:16.113Z,51.91
2018-07-05T09:59:43.166Z,51.84
2018-07-05T10:02:10.222Z,52.10
2018-07-05T10:04:37.301Z,52.78
2018-07-05T10:07:04.352Z,53.17
2018-07-05T10:09:31.411Z,53.64
2018-07-05T10:11:58.461Z,53.73
2018-07-05T10:14:25.508Z,52.44
2018-07-05T10:16:52.742Z,52.00
2018-07-05T10:19:19.868Z,52.80
2018-07-05T10:21:47.243Z,51.86
2018-07-05T10:24:14.290Z,53.27
2018-07-05T10:26:41.370Z,52.77
2018-07-05T10:29:21.994Z,52.18
2018-07-05T10:32:01.901Z,52.26
2018-07-05T10:34:28.963Z,51.64
2018-07-05T10:36:56.011Z,51.30
2018-07-05T10:39:23.059Z,53.17
2018-07-05T10:42:02.626Z,53.18
2018-07-05T10:44:41.974Z,53.01
2018-07-05T10:47:22.266Z,53.57
2018-07-05T10:50:01.878Z,53.78
2018-07-05T10:52:41.495Z,53.54
2018-07-05T10:55:21.733Z,52.43
2018-07-05T10:58:01.716Z,50.78
2018-07-05T11:00:41.238Z,51.56
2018-07-05T11:03:20.838Z,50.09
2018-07-05T11:06:00.782Z,49.69
2018-07-05T11:08:40.159Z,49.72
2018-07-05T11:11:19.658Z,49.17
2018-07-05T11:13:59.119Z,48.79
2018-07-05T11:16:38.452Z,49.81
2018-07-05T11:19:17.941Z,48.81
2018-07-05T11:21:57.690Z,49.07
2018-07-05T11:24:37.108Z,49.16
2018-07-05T11:27:16.615Z,49.99
2018-07-05T11:29:56.143Z,50.42
2018-07-05T11:32:35.583Z,49.90
2018-07-05T11:35:15.245Z,49.98
2018-07-05T11:37:54.603Z,50.84
2018-07-05T11:40:33.852Z,49.97
2018-07-05T11:43:13.340Z,50.13
2018-07-05T11:45:52.840Z,53.25
2018-07-05T11:48:32.672Z,53.53
2018-07-05T11:51:12.221Z,54.72
2018-07-05T11:53:52.539Z,53.87
2018-07-05T11:56:32.169Z,53.38
2018-07-05T11:59:11.833Z,54.60
2018-07-05T12:01:52.339Z,53.57
2018-07-05T12:04:32.161Z,54.21
2018-07-05T12:07:11.551Z,53.31
2018-07-05T12:09:50.971Z,55.31
2018-07-05T12:12:30.661Z,54.46
2018-07-05T12:15:10.057Z,55.76
2018-07-05T12:17:49.584Z,56.78
2018-07-05T12:20:29.079Z,56.22
2018-07-05T12:23:08.632Z,52.83
2018-07-05T12:25:47.813Z,51.80
2018-07-05T12:28:27.441Z,51.52
2018-07-05T12:31:06.840Z,52.07
2018-07-05T12:33:46.616Z,51.41
2018-07-05T12:36:26.046Z,51.13
2018-07-05T12:39:05.536Z,49.07
2018-07-05T12:41:45.077Z,48.54
2018-07-05T12:44:24.563Z,49.25
2018-07-05T12:47:04.078Z,48.96
2018-07-05T12:49:43.426Z,48.65
2018-07-05T12:52:23.242Z,49.33
2018-07-05T12:55:02.687Z,47.39
2018-07-05T12:57:42.318Z,47.60
2018-07-05T13:00:22.798Z,47.46
2018-07-05T13:03:02.292Z,48.69
2018-07-05T13:05:41.707Z,48.63
2018-07-05T13:08:21.231Z,48.63
2018-07-05T13:11:00.865Z,48.46
2018-07-05T13:13:40.227Z,48.40
2018-07-05T13:16:19.751Z,48.38
2018-07-05T13:19:00.035Z,49.74
2018-07-05T13:21:40.093Z,50.94
2018-07-05T13:24:19.549Z,49.45
2018-07-05T13:26:58.929Z,49.34
2018-07-05T13:29:38.551Z,50.12
2018-07-05T13:32:18.095Z,49.42
2018-07-05T13:34:57.660Z,47.94
2018-07-05T13:37:37.258Z,48.26
2018-07-05T13:40:16.914Z,49.88
2018-07-05T13:42:56.477Z,51.43
2018-07-05T13:45:36.144Z,50.03
2018-07-05T13:48:15.503Z,50.99
2018-07-05T13:50:55.043Z,50.86
2018-07-05T13:53:34.556Z,50.55
2018-07-05T13:56:14.302Z,51.79
2018-07-05T13:58:53.920Z,52.20
2018-07-05T14:01:33.414Z,51.02
2018-07-05T14:04:12.842Z,51.86
2018-07-05T14:06:52.991Z,52.32
2018-07-05T14:09:32.427Z,52.66
2018-07-05T14:12:11.691Z,53.03
2018-07-05T14:14:51.119Z,54.05
2018-07-05T14:17:30.481Z,54.61
2018-07-05T14:20:09.860Z,55.12
2018-07-05T14:22:49.257Z,53.55
2018-07-05T14:25:28.731Z,52.92
2018-07-05T14:28:08.254Z,53.05
2018-07-05T14:30:47.668Z,52.97
2018-07-05T14:33:27.333Z,52.18
2018-07-05T14:36:06.699Z,51.33
2018-07-05T14:38:46.294Z,51.25
2018-07-05T14:41:25.684Z,51.51
2018-07-05T14:44:05.159Z,50.83
2018-07-05T14:46:44.751Z,50.70
2018-07-05T14:49:24.347Z,47.56
2018-07-05T14:52:03.892Z,45.52
2018-07-05T14:54:43.256Z,46.00
2018-07-05T14:57:23.032Z,45.60
2018-07-05T15:00:02.765Z,46.76
2018-07-05T15:02:42.279Z,47.74
2018-07-05T15:05:21.532Z,47.75
2018-07-05T15:08:00.943Z,48.24
2018-07-05T15:10:40.660Z,48.50
2018-07-05T15:13:20.218Z,47.93
2018-07-05T15:15:59.753Z,49.25
2018-07-05T15:18:39.312Z,50.79
2018-07-05T15:21:18.757Z,51.10
2018-07-05T15:23:58.074Z,51.22
2018-07-05T15:26:37.609Z,51.70
2018-07-05T15:29:17.113Z,52.44
2018-07-05T15:31:56.639Z,52.84
2018-07-05T15:34:36.144Z,52.84
2018-07-05T15:37:15.551Z,52.25
2018-07-05T15:39:55.042Z,51.96
2018-07-05T15:42:34.791Z,55.09
2018-07-05T15:45:14.721Z,55.55
2018-07-05T15:47:54.616Z,56.26
2018-07-05T15:50:35.012Z,55.11
2018-07-05T15:53:16.738Z,54.36
2018-07-05T15:55:56.720Z,54.13
2018-07-05T15:58:36.364Z,55.06
2018-07-05T16:01:16.091Z,55.19
2018-07-05T16:03:55.644Z,56.04
2018-07-05T16:06:35.301Z,55.97
2018-07-05T16:09:14.782Z,56.94
2018-07-05T16:11:54.583Z,56.62
2018-07-05T16:14:34.333Z,57.37
2018-07-05T16:17:13.793Z,57.32
2018-07-05T16:19:53.670Z,57.57
2018-07-05T16:22:33.998Z,57.87
2018-07-05T16:25:14.665Z,58.30
2018-07-05T16:27:55.158Z,56.70
2018-07-05T16:30:34.638Z,57.95
2018-07-05T16:33:14.043Z,58.24
2018-07-05T16:35:53.542Z,58.42
2018-07-05T16:38:33.044Z,58.30
2018-07-05T16:41:12.573Z,59.12
2018-07-05T16:43:52.087Z,57.62
2018-07-05T16:46:31.593Z,59.20
2018-07-05T16:49:10.919Z,58.12
2018-07-05T16:51:50.483Z,58.70
2018-07-05T16:54:29.748Z,57.25
2018-07-05T16:57:09.303Z,57.81
2018-07-05T16:59:48.806Z,57.13
2018-07-05T17:02:28.308Z,57.35
2018-07-05T17:05:07.690Z,57.94
2018-07-05T17:07:47.283Z,59.25
2018-07-05T17:10:26.564Z,59.50
2018-07-05T17:13:05.982Z,59.82
2018-07-05T17:15:45.526Z,59.19
2018-07-05T17:18:24.879Z,58.73
2018-07-05T17:21:04.211Z,58.65
2018-07-05T17:23:43.766Z,59.62
2018-07-05T17:26:23.896Z,59.21
2018-07-05T17:29:03.323Z,60.69
2018-07-05T17:31:42.836Z,59.73
2018-07-05T17:34:22.204Z,60.03
2018-07-05T17:37:01.771Z,59.84
2018-07-05T17:39:41.278Z,58.71
2018-07-05T17:42:20.613Z,61.07
2018-07-05T17:45:00.084Z,60.59
2018-07-05T17:47:39.385Z,60.24
2018-07-05T17:50:18.679Z,59.80
2018-07-05T17:52:58.068Z,59.30
2018-07-05T17:55:37.630Z,59.62
2018-07-05T17:58:17.180Z,59.49
2018-07-05T18:00:56.483Z,58.65
2018-07-05T18:03:36.015Z,60.62
2018-07-05T18:06:15.556Z,60.61
2018-07-05T18:08:55.000Z,60.86
2018-07-05T18:11:34.530Z,62.01
2018-07-05T18:14:13.954Z,62.81
2018-07-05T18:16:53.887Z,62.48
2018-07-05T18:19:33.433Z,62.16
2018-07-05T18:22:13.015Z,61.72
2018-07-05T18:24:52.391Z,61.38
2018-07-05T18:27:31.967Z,60.81
2018-07-05T18:30:11.451Z,59.91
2018-07-05T18:32:51.195Z,59.12
2018-07-05T18:35:30.727Z,59.43
2018-07-05T18:38:10.103Z,59.49
2018-07-05T18:40:49.533Z,61.84
2018-07-05T18:43:28.944Z,61.65
2018-07-05T18:46:08.508Z,62.55
2018-07-05T18:48:47.955Z,63.94
2018-07-05T18:51:27.403Z,63.63
2018-07-05T18:54:06.940Z,65.28
2018-07-05T18:56:46.362Z,66.26
2018-07-05T18:59:25.928Z,65.38
2018-07-05T19:02:05.356Z,64.20
2018-07-05T19:04:44.764Z,65.09
2018-07-05T19:07:24.347Z,64.24
2018-07-05T19:10:03.859Z,64.47
2018-07-05T19:12:43.415Z,64.08
2018-07-05T19:15:22.827Z,64.90
2018-07-05T19:18:02.397Z,64.68
2018-07-05T19:20:41.792Z,64.89
2018-07-05T19:23:21.377Z,65.26
2018-07-05T19:26:00.918Z,65.47
2018-07-05T19:28:40.618Z,64.87
2018-07-05T19:31:20.184Z,65.69
2018-07-05T19:33:59.513Z,65.60
2018-07-05T19:36:39.089Z,65.56
2018-07-05T19:39:18.626Z,65.97
2018-07-05T19:41:58.299Z,66.14
2018-07-05T19:44:37.728Z,67.58
2018-07-05T19:47:17.285Z,67.28
2018-07-05T19:49:56.707Z,68.42
2018-07-05T19:52:36.220Z,68.16
2018-07-05T19:55:15.744Z,67.71
2018-07-05T19:57:55.195Z,67.81
2018-07-05T20:00:34.728Z,67.73
2018-07-05T20:03:14.307Z,68.21
2018-07-05T20:05:54.425Z,67.83
2018-07-05T20:08:34.133Z,67.89
2018-07-05T20:11:13.580Z,68.05
2018-07-05T20:13:53.052Z,68.13
2018-07-05T20:16:32.609Z,68.09
2018-07-05T20:19:12.087Z,68.29
2018-07-05T20:21:51.542Z,68.56
2018-07-05T20:24:31.167Z,68.17
2018-07-05T20:27:10.778Z,68.12
2018-07-05T20:29:50.454Z,68.40
2018-07-05T20:32:29.899Z,69.56
2018-07-05T20:35:09.447Z,68.60
2018-07-05T20:37:48.909Z,68.60
2018-07-05T20:40:28.276Z,68.91
2018-07-05T20:43:07.860Z,69.53
2018-07-05T20:45:48.434Z,69.04
2018-07-05T20:48:27.940Z,68.80
2018-07-05T20:51:07.369Z,69.11
2018-07-05T20:53:46.879Z,69.36
2018-07-05T20:56:26.391Z,69.38
2018-07-05T20:59:05.886Z,70.44
2018-07-05T21:01:45.435Z,69.69
2018-07-05T21:04:24.984Z,70.08
2018-07-05T21:07:04.464Z,69.25
2018-07-05T21:09:43.783Z,69.63
2018-07-05T21:12:23.111Z,70.01
2018-07-05T21:15:02.617Z,70.69
2018-07-05T21:17:42.136Z,69.76
2018-07-05T21:20:21.553Z,70.39
2018-07-05T21:23:00.892Z,69.37
2018-07-05T21:25:40.360Z,69.93
2018-07-05T21:28:19.758Z,69.81
2018-07-05T21:30:59.212Z,69.33
2018-07-05T21:33:38.612Z,69.98
2018-07-05T21:36:18.316Z,69.52
2018-07-05T21:38:57.830Z,69.95
2018-07-05T21:41:37.319Z,69.23
2018-07-05T21:44:16.834Z,69.06
2018-07-05T21:46:56.275Z,68.93
2018-07-05T21:49:35.692Z,69.16
2018-07-05T21:52:15.221Z,68.85
2018-07-05T21:54:55.247Z,69.73
2018-07-05T21:57:34.731Z,69.89
2018-07-05T22:00:14.248Z,69.55
2018-07-05T22:02:53.743Z,70.71
2018-07-05T22:05:33.244Z,70.68
2018-07-05T22:08:12.795Z,70.84
2018-07-05T22:10:52.228Z,70.62
2018-07-05T22:13:31.882Z,70.91
2018-07-05T22:16:11.367Z,70.87
2018-07-05T22:18:56.177Z,71.69
2018-07-05T22:21:39.880Z,71.82
2018-07-05T22:24:24.790Z,71.51
2018-07-05T22:27:04.293Z,70.90
2018-07-05T22:29:49.232Z,72.08
2018-07-05T22:32:28.699Z,71.52
2018-07-05T22:35:08.053Z,71.53
2018-07-05T22:37:47.486Z,70.75
2018-07-05T22:40:27.069Z,72.10
2018-07-05T22:43:06.599Z,71.09
2018-07-05T22:45:46.079Z,72.03
2018-07-05T22:48:25.492Z,72.35
2018-07-05T22:51:04.979Z,72.61
2018-07-05T22:53:44.617Z,73.39
2018-07-05T22:56:24.155Z,71.54
2018-07-05T22:59:04.804Z,71.02
2018-07-05T23:01:44.170Z,71.91
2018-07-05T23:04:23.640Z,72.39
2018-07-05T23:07:03.055Z,72.89
2018-07-05T23:09:42.492Z,73.01
2018-07-05T23:12:21.920Z,73.39
2018-07-05T23:15:01.677Z,73.16
2018-07-05T23:17:41.360Z,74.17
2018-07-05T23:20:20.924Z,73.50
2018-07-05T23:23:00.324Z,74.28
2018-07-05T23:25:39.758Z,75.11
2018-07-05T23:28:19.324Z,74.24
2018-07-05T23:30:58.682Z,74.07
2018-07-05T23:33:38.275Z,75.49
2018-07-05T23:36:17.617Z,75.57
2018-07-05T23:38:56.800Z,74.73
2018-07-05T23:41:36.304Z,74.14
2018-07-05T23:44:15.663Z,75.58
2018-07-05T23:46:57.774Z,75.97
2018-07-05T23:49:37.108Z,76.16
2018-07-05T23:52:16.487Z,76.43
2018-07-05T23:54:55.954Z,75.42
2018-07-05T23:57:35.379Z,75.89
